sensor_id;sensor_type;location;lat;lon;timestamp;P1;durP1;ratioP1;P2;durP2;ratioP2
49834;SDS011;35729;52.090;13.162;2022-12-16T00:01:33;72.53;;;38.28;;
49834;SDS011;35729;52.090;13.162;2022-12-16T00:04:02;70.50;;;39.25;;
49834;SDS011;35729;52.090;13.162;2022-12-16T00:06:37;79.03;;;40.50;;
49834;SDS011;35729;52.090;13.162;2022-12-16T00:09:12;66.90;;;38.30;;
49834;SDS011;35729;52.090;13.162;2022-12-16T00:11:40;62.60;;;34.55;;
49834;SDS011;35729;52.090;13.162;2022-12-16T00:14:09;66.65;;;34.47;;
49834;SDS011;35729;52.090;13.162;2022-12-16T00:16:40;67.20;;;35.53;;
49834;SDS011;35729;52.090;13.162;2022-12-16T00:19:08;63.85;;;34.72;;
49834;SDS011;35729;52.090;13.162;2022-12-16T00:21:37;63.90;;;34.60;;
49834;SDS011;35729;52.090;13.162;2022-12-16T00:24:05;66.53;;;34.15;;
49834;SDS011;35729;52.090;13.162;2022-12-16T00:26:33;64.80;;;34.13;;
49834;SDS011;35729;52.090;13.162;2022-12-16T00:29:02;59.35;;;31.23;;
49834;SDS011;35729;52.090;13.162;2022-12-16T00:31:34;67.53;;;32.75;;
49834;SDS011;35729;52.090;13.162;2022-12-16T00:34:05;72.78;;;35.90;;
49834;SDS011;35729;52.090;13.162;2022-12-16T00:36:34;65.40;;;34.75;;
49834;SDS011;35729;52.090;13.162;2022-12-16T00:39:02;65.40;;;33.35;;
49834;SDS011;35729;52.090;13.162;2022-12-16T00:41:31;63.83;;;33.70;;
49834;SDS011;35729;52.090;13.162;2022-12-16T00:43:59;63.53;;;30.65;;
49834;SDS011;35729;52.090;13.162;2022-12-16T00:46:28;59.38;;;31.77;;
49834;SDS011;35729;52.090;13.162;2022-12-16T00:48:56;53.78;;;27.77;;
49834;SDS011;35729;52.090;13.162;2022-12-16T00:51:27;51.67;;;28.83;;
49834;SDS011;35729;52.090;13.162;2022-12-16T00:53:56;53.53;;;30.58;;
49834;SDS011;35729;52.090;13.162;2022-12-16T00:56:24;58.63;;;29.10;;
49834;SDS011;35729;52.090;13.162;2022-12-16T00:58:53;56.17;;;30.23;;
49834;SDS011;35729;52.090;13.162;2022-12-16T01:01:21;55.42;;;28.65;;
49834;SDS011;35729;52.090;13.162;2022-12-16T01:03:50;54.30;;;29.85;;
49834;SDS011;35729;52.090;13.162;2022-12-16T01:06:18;55.40;;;29.08;;
49834;SDS011;35729;52.090;13.162;2022-12-16T01:08:49;52.90;;;29.38;;
49834;SDS011;35729;52.090;13.162;2022-12-16T01:11:18;54.17;;;27.75;;
49834;SDS011;35729;52.090;13.162;2022-12-16T01:13:48;59.53;;;30.27;;
49834;SDS011;35729;52.090;13.162;2022-12-16T01:16:18;53.55;;;29.05;;
49834;SDS011;35729;52.090;13.162;2022-12-16T01:18:47;57.83;;;29.73;;
49834;SDS011;35729;52.090;13.162;2022-12-16T01:21:15;54.42;;;28.45;;
49834;SDS011;35729;52.090;13.162;2022-12-16T01:23:45;52.97;;;29.13;;
49834;SDS011;35729;52.090;13.162;2022-12-16T01:26:17;53.05;;;29.65;;
49834;SDS011;35729;52.090;13.162;2022-12-16T01:28:46;51.78;;;29.48;;
49834;SDS011;35729;52.090;13.162;2022-12-16T01:31:16;53.55;;;29.17;;
49834;SDS011;35729;52.090;13.162;2022-12-16T01:33:45;53.10;;;28.98;;
49834;SDS011;35729;52.090;13.162;2022-12-16T01:36:14;60.15;;;31.38;;
49834;SDS011;35729;52.090;13.162;2022-12-16T01:38:44;63.67;;;32.55;;
49834;SDS011;35729;52.090;13.162;2022-12-16T01:41:16;60.33;;;30.13;;
49834;SDS011;35729;52.090;13.162;2022-12-16T01:43:45;56.67;;;30.90;;
49834;SDS011;35729;52.090;13.162;2022-12-16T01:46:15;52.13;;;30.40;;
49834;SDS011;35729;52.090;13.162;2022-12-16T01:48:49;54.78;;;27.60;;
49834;SDS011;35729;52.090;13.162;2022-12-16T01:51:21;50.75;;;27.52;;
49834;SDS011;35729;52.090;13.162;2022-12-16T01:53:54;52.63;;;29.27;;
49834;SDS011;35729;52.090;13.162;2022-12-16T01:56:29;55.13;;;28.20;;
49834;SDS011;35729;52.090;13.162;2022-12-16T02:01:29;49.42;;;26.83;;
49834;SDS011;35729;52.090;13.162;2022-12-16T02:03:57;55.42;;;28.05;;
49834;SDS011;35729;52.090;13.162;2022-12-16T02:06:30;50.53;;;28.50;;
49834;SDS011;35729;52.090;13.162;2022-12-16T02:08:59;53.15;;;27.60;;
49834;SDS011;35729;52.090;13.162;2022-12-16T02:11:39;57.13;;;30.73;;
49834;SDS011;35729;52.090;13.162;2022-12-16T02:14:25;52.65;;;30.42;;
49834;SDS011;35729;52.090;13.162;2022-12-16T02:17:06;54.22;;;28.45;;
49834;SDS011;35729;52.090;13.162;2022-12-16T02:19:51;54.47;;;28.48;;
49834;SDS011;35729;52.090;13.162;2022-12-16T02:22:46;54.47;;;28.75;;
49834;SDS011;35729;52.090;13.162;2022-12-16T02:25:41;50.20;;;27.73;;
49834;SDS011;35729;52.090;13.162;2022-12-16T02:28:33;52.42;;;26.85;;
49834;SDS011;35729;52.090;13.162;2022-12-16T02:31:20;56.42;;;28.63;;
49834;SDS011;35729;52.090;13.162;2022-12-16T02:33:59;62.65;;;29.98;;
49834;SDS011;35729;52.090;13.162;2022-12-16T02:36:41;54.17;;;28.45;;
49834;SDS011;35729;52.090;13.162;2022-12-16T02:39:17;54.00;;;29.35;;
49834;SDS011;35729;52.090;13.162;2022-12-16T02:41:49;54.50;;;27.33;;
49834;SDS011;35729;52.090;13.162;2022-12-16T02:46:59;51.15;;;25.45;;
49834;SDS011;35729;52.090;13.162;2022-12-16T02:52:21;53.30;;;25.70;;
49834;SDS011;35729;52.090;13.162;2022-12-16T02:54:52;51.70;;;27.15;;
49834;SDS011;35729;52.090;13.162;2022-12-16T02:57:33;49.47;;;26.98;;
49834;SDS011;35729;52.090;13.162;2022-12-16T03:00:11;54.15;;;28.55;;
49834;SDS011;35729;52.090;13.162;2022-12-16T03:02:46;55.53;;;29.10;;
49834;SDS011;35729;52.090;13.162;2022-12-16T03:05:22;52.97;;;28.83;;
49834;SDS011;35729;52.090;13.162;2022-12-16T03:07:56;48.83;;;26.50;;
49834;SDS011;35729;52.090;13.162;2022-12-16T03:10:27;52.65;;;28.25;;
49834;SDS011;35729;52.090;13.162;2022-12-16T03:13:02;52.45;;;25.92;;
49834;SDS011;35729;52.090;13.162;2022-12-16T03:15:33;52.95;;;27.67;;
49834;SDS011;35729;52.090;13.162;2022-12-16T03:18:06;54.03;;;28.15;;
49834;SDS011;35729;52.090;13.162;2022-12-16T03:20:38;52.25;;;27.70;;
49834;SDS011;35729;52.090;13.162;2022-12-16T03:23:11;51.53;;;27.13;;
49834;SDS011;35729;52.090;13.162;2022-12-16T03:25:44;51.93;;;25.90;;
49834;SDS011;35729;52.090;13.162;2022-12-16T03:28:19;46.17;;;25.45;;
49834;SDS011;35729;52.090;13.162;2022-12-16T03:30:57;53.75;;;27.75;;
49834;SDS011;35729;52.090;13.162;2022-12-16T03:33:36;48.42;;;25.92;;
49834;SDS011;35729;52.090;13.162;2022-12-16T03:36:08;53.38;;;26.58;;
49834;SDS011;35729;52.090;13.162;2022-12-16T03:41:10;54.08;;;26.38;;
49834;SDS011;35729;52.090;13.162;2022-12-16T03:43:41;52.15;;;26.48;;
49834;SDS011;35729;52.090;13.162;2022-12-16T03:46:10;53.00;;;27.67;;
49834;SDS011;35729;52.090;13.162;2022-12-16T03:48:46;56.20;;;27.58;;
49834;SDS011;35729;52.090;13.162;2022-12-16T03:51:17;56.90;;;29.90;;
49834;SDS011;35729;52.090;13.162;2022-12-16T03:53:45;54.92;;;27.85;;
49834;SDS011;35729;52.090;13.162;2022-12-16T03:56:14;57.63;;;27.58;;
49834;SDS011;35729;52.090;13.162;2022-12-16T03:58:42;54.67;;;28.83;;
49834;SDS011;35729;52.090;13.162;2022-12-16T04:01:11;54.30;;;27.60;;
49834;SDS011;35729;52.090;13.162;2022-12-16T04:03:40;53.35;;;27.63;;
49834;SDS011;35729;52.090;13.162;2022-12-16T04:06:11;50.10;;;27.75;;
49834;SDS011;35729;52.090;13.162;2022-12-16T04:08:49;53.90;;;27.30;;
49834;SDS011;35729;52.090;13.162;2022-12-16T04:11:17;53.53;;;28.73;;
49834;SDS011;35729;52.090;13.162;2022-12-16T04:13:58;64.38;;;29.90;;
49834;SDS011;35729;52.090;13.162;2022-12-16T04:16:39;54.25;;;28.58;;
49834;SDS011;35729;52.090;13.162;2022-12-16T04:19:22;54.13;;;27.65;;
49834;SDS011;35729;52.090;13.162;2022-12-16T04:22:11;54.42;;;27.58;;
49834;SDS011;35729;52.090;13.162;2022-12-16T04:24:54;62.35;;;32.22;;
49834;SDS011;35729;52.090;13.162;2022-12-16T04:27:23;54.03;;;28.38;;
49834;SDS011;35729;52.090;13.162;2022-12-16T04:29:52;50.15;;;28.52;;
49834;SDS011;35729;52.090;13.162;2022-12-16T04:32:33;57.05;;;29.00;;
49834;SDS011;35729;52.090;13.162;2022-12-16T04:35:13;59.83;;;30.33;;
49834;SDS011;35729;52.090;13.162;2022-12-16T04:37:57;52.58;;;28.80;;
49834;SDS011;35729;52.090;13.162;2022-12-16T04:40:37;54.13;;;27.63;;
49834;SDS011;35729;52.090;13.162;2022-12-16T04:43:18;55.10;;;29.83;;
49834;SDS011;35729;52.090;13.162;2022-12-16T04:46:08;53.35;;;28.13;;
49834;SDS011;35729;52.090;13.162;2022-12-16T04:48:49;53.03;;;29.15;;
49834;SDS011;35729;52.090;13.162;2022-12-16T04:51:29;61.60;;;31.40;;
49834;SDS011;35729;52.090;13.162;2022-12-16T04:54:13;53.85;;;28.35;;
49834;SDS011;35729;52.090;13.162;2022-12-16T04:56:54;54.63;;;29.38;;
49834;SDS011;35729;52.090;13.162;2022-12-16T04:59:35;62.60;;;29.05;;
49834;SDS011;35729;52.090;13.162;2022-12-16T05:02:15;59.72;;;29.52;;
49834;SDS011;35729;52.090;13.162;2022-12-16T05:04:56;57.70;;;28.73;;
49834;SDS011;35729;52.090;13.162;2022-12-16T05:07:37;61.17;;;32.08;;
49834;SDS011;35729;52.090;13.162;2022-12-16T05:10:20;59.13;;;29.65;;
49834;SDS011;35729;52.090;13.162;2022-12-16T05:13:01;49.53;;;27.58;;
49834;SDS011;35729;52.090;13.162;2022-12-16T05:15:42;58.20;;;28.48;;
49834;SDS011;35729;52.090;13.162;2022-12-16T05:18:23;54.65;;;28.10;;
49834;SDS011;35729;52.090;13.162;2022-12-16T05:21:04;51.63;;;26.33;;
49834;SDS011;35729;52.090;13.162;2022-12-16T05:23:45;55.50;;;29.45;;
49834;SDS011;35729;52.090;13.162;2022-12-16T05:26:29;51.83;;;25.92;;
49834;SDS011;35729;52.090;13.162;2022-12-16T05:29:10;54.80;;;28.48;;
49834;SDS011;35729;52.090;13.162;2022-12-16T05:31:51;55.22;;;29.35;;
49834;SDS011;35729;52.090;13.162;2022-12-16T05:34:32;59.47;;;28.67;;
49834;SDS011;35729;52.090;13.162;2022-12-16T05:37:12;67.07;;;30.65;;
49834;SDS011;35729;52.090;13.162;2022-12-16T05:39:53;55.90;;;29.92;;
49834;SDS011;35729;52.090;13.162;2022-12-16T05:42:37;61.67;;;30.23;;
49834;SDS011;35729;52.090;13.162;2022-12-16T05:45:23;52.15;;;27.60;;
49834;SDS011;35729;52.090;13.162;2022-12-16T05:48:04;60.63;;;28.60;;
49834;SDS011;35729;52.090;13.162;2022-12-16T05:50:45;58.17;;;30.08;;
49834;SDS011;35729;52.090;13.162;2022-12-16T05:53:26;53.05;;;28.77;;
49834;SDS011;35729;52.090;13.162;2022-12-16T05:56:07;56.30;;;29.80;;
49834;SDS011;35729;52.090;13.162;2022-12-16T05:58:50;55.17;;;29.70;;
49834;SDS011;35729;52.090;13.162;2022-12-16T06:01:31;57.28;;;29.40;;
49834;SDS011;35729;52.090;13.162;2022-12-16T06:04:18;61.65;;;30.27;;
49834;SDS011;35729;52.090;13.162;2022-12-16T06:06:59;58.00;;;29.05;;
49834;SDS011;35729;52.090;13.162;2022-12-16T06:09:40;59.28;;;28.92;;
49834;SDS011;35729;52.090;13.162;2022-12-16T06:12:20;56.50;;;29.50;;
49834;SDS011;35729;52.090;13.162;2022-12-16T06:15:07;55.08;;;29.05;;
49834;SDS011;35729;52.090;13.162;2022-12-16T06:17:49;56.33;;;28.73;;
49834;SDS011;35729;52.090;13.162;2022-12-16T06:20:30;52.50;;;27.88;;
49834;SDS011;35729;52.090;13.162;2022-12-16T06:23:11;50.47;;;26.98;;
49834;SDS011;35729;52.090;13.162;2022-12-16T06:25:52;54.95;;;28.00;;
49834;SDS011;35729;52.090;13.162;2022-12-16T06:28:33;53.72;;;29.33;;
49834;SDS011;35729;52.090;13.162;2022-12-16T06:31:16;56.40;;;30.10;;
49834;SDS011;35729;52.090;13.162;2022-12-16T06:33:57;49.70;;;29.42;;
49834;SDS011;35729;52.090;13.162;2022-12-16T06:36:38;49.75;;;27.42;;
49834;SDS011;35729;52.090;13.162;2022-12-16T06:39:19;51.22;;;26.75;;
49834;SDS011;35729;52.090;13.162;2022-12-16T06:42:00;52.35;;;28.40;;
49834;SDS011;35729;52.090;13.162;2022-12-16T06:44:41;59.13;;;28.63;;
49834;SDS011;35729;52.090;13.162;2022-12-16T06:47:30;60.35;;;30.33;;
49834;SDS011;35729;52.090;13.162;2022-12-16T06:50:11;53.63;;;27.77;;
49834;SDS011;35729;52.090;13.162;2022-12-16T06:52:52;48.95;;;27.33;;
49834;SDS011;35729;52.090;13.162;2022-12-16T06:55:32;57.25;;;28.88;;
49834;SDS011;35729;52.090;13.162;2022-12-16T06:58:13;63.75;;;29.83;;
49834;SDS011;35729;52.090;13.162;2022-12-16T07:00:54;63.95;;;30.38;;
49834;SDS011;35729;52.090;13.162;2022-12-16T07:03:38;58.45;;;30.95;;
49834;SDS011;35729;52.090;13.162;2022-12-16T07:06:18;59.20;;;31.05;;
49834;SDS011;35729;52.090;13.162;2022-12-16T07:08:59;61.83;;;31.42;;
49834;SDS011;35729;52.090;13.162;2022-12-16T07:11:40;61.15;;;31.02;;
49834;SDS011;35729;52.090;13.162;2022-12-16T07:14:21;64.47;;;30.90;;
49834;SDS011;35729;52.090;13.162;2022-12-16T07:17:02;58.10;;;31.13;;
49834;SDS011;35729;52.090;13.162;2022-12-16T07:19:46;58.50;;;32.17;;
49834;SDS011;35729;52.090;13.162;2022-12-16T07:22:26;69.05;;;33.25;;
49834;SDS011;35729;52.090;13.162;2022-12-16T07:25:07;66.15;;;31.95;;
49834;SDS011;35729;52.090;13.162;2022-12-16T07:27:48;59.70;;;31.38;;
49834;SDS011;35729;52.090;13.162;2022-12-16T07:30:29;61.97;;;32.53;;
49834;SDS011;35729;52.090;13.162;2022-12-16T07:33:10;72.60;;;33.10;;
49834;SDS011;35729;52.090;13.162;2022-12-16T07:35:53;70.38;;;33.88;;
49834;SDS011;35729;52.090;13.162;2022-12-16T07:38:34;65.05;;;32.42;;
49834;SDS011;35729;52.090;13.162;2022-12-16T07:41:15;65.60;;;34.58;;
49834;SDS011;35729;52.090;13.162;2022-12-16T07:43:56;59.97;;;32.63;;
49834;SDS011;35729;52.090;13.162;2022-12-16T07:46:37;65.50;;;33.85;;
49834;SDS011;35729;52.090;13.162;2022-12-16T07:49:18;60.05;;;31.08;;
49834;SDS011;35729;52.090;13.162;2022-12-16T07:52:01;63.00;;;32.92;;
49834;SDS011;35729;52.090;13.162;2022-12-16T07:54:48;62.97;;;31.63;;
49834;SDS011;35729;52.090;13.162;2022-12-16T07:57:29;61.50;;;31.13;;
49834;SDS011;35729;52.090;13.162;2022-12-16T08:00:10;59.00;;;32.85;;
49834;SDS011;35729;52.090;13.162;2022-12-16T08:02:52;67.57;;;35.25;;
49834;SDS011;35729;52.090;13.162;2022-12-16T08:05:33;61.30;;;32.03;;
49834;SDS011;35729;52.090;13.162;2022-12-16T08:08:16;64.10;;;32.42;;
49834;SDS011;35729;52.090;13.162;2022-12-16T08:10:57;61.65;;;31.70;;
49834;SDS011;35729;52.090;13.162;2022-12-16T08:13:39;60.50;;;32.28;;
49834;SDS011;35729;52.090;13.162;2022-12-16T08:16:20;61.20;;;31.10;;
49834;SDS011;35729;52.090;13.162;2022-12-16T08:19:00;73.55;;;36.20;;
49834;SDS011;35729;52.090;13.162;2022-12-16T08:21:41;81.72;;;41.53;;
49834;SDS011;35729;52.090;13.162;2022-12-16T08:24:25;102.53;;;44.55;;
49834;SDS011;35729;52.090;13.162;2022-12-16T08:27:06;75.50;;;39.03;;
49834;SDS011;35729;52.090;13.162;2022-12-16T08:29:46;123.00;;;59.58;;
49834;SDS011;35729;52.090;13.162;2022-12-16T08:32:36;101.85;;;46.10;;
49834;SDS011;35729;52.090;13.162;2022-12-16T08:35:17;85.95;;;39.88;;
49834;SDS011;35729;52.090;13.162;2022-12-16T08:37:58;75.78;;;42.72;;
49834;SDS011;35729;52.090;13.162;2022-12-16T08:40:42;87.60;;;42.88;;
49834;SDS011;35729;52.090;13.162;2022-12-16T08:43:23;81.60;;;41.17;;
49834;SDS011;35729;52.090;13.162;2022-12-16T08:46:04;84.05;;;41.92;;
49834;SDS011;35729;52.090;13.162;2022-12-16T08:48:45;81.20;;;40.03;;
49834;SDS011;35729;52.090;13.162;2022-12-16T08:51:26;75.70;;;37.80;;
49834;SDS011;35729;52.090;13.162;2022-12-16T08:54:07;75.68;;;38.40;;
49834;SDS011;35729;52.090;13.162;2022-12-16T08:56:50;74.32;;;39.20;;
49834;SDS011;35729;52.090;13.162;2022-12-16T08:59:31;54.92;;;30.38;;
49834;SDS011;35729;52.090;13.162;2022-12-16T09:02:12;77.93;;;40.50;;
49834;SDS011;35729;52.090;13.162;2022-12-16T09:04:53;76.40;;;39.08;;
49834;SDS011;35729;52.090;13.162;2022-12-16T09:07:34;77.25;;;40.35;;
49834;SDS011;35729;52.090;13.162;2022-12-16T09:10:15;78.57;;;40.83;;
49834;SDS011;35729;52.090;13.162;2022-12-16T09:13:06;75.93;;;39.75;;
49834;SDS011;35729;52.090;13.162;2022-12-16T09:15:47;75.95;;;40.22;;
49834;SDS011;35729;52.090;13.162;2022-12-16T09:18:28;83.18;;;39.33;;
49834;SDS011;35729;52.090;13.162;2022-12-16T09:21:09;74.13;;;38.78;;
49834;SDS011;35729;52.090;13.162;2022-12-16T09:23:50;82.28;;;39.80;;
49834;SDS011;35729;52.090;13.162;2022-12-16T09:26:42;81.15;;;41.17;;
49834;SDS011;35729;52.090;13.162;2022-12-16T09:29:26;80.50;;;40.78;;
49834;SDS011;35729;52.090;13.162;2022-12-16T09:32:06;88.65;;;43.67;;
49834;SDS011;35729;52.090;13.162;2022-12-16T09:34:47;90.35;;;41.78;;
49834;SDS011;35729;52.090;13.162;2022-12-16T09:37:28;79.38;;;40.33;;
49834;SDS011;35729;52.090;13.162;2022-12-16T09:40:09;83.47;;;41.60;;
49834;SDS011;35729;52.090;13.162;2022-12-16T09:43:01;84.15;;;41.22;;
49834;SDS011;35729;52.090;13.162;2022-12-16T09:45:56;84.20;;;41.78;;
49834;SDS011;35729;52.090;13.162;2022-12-16T09:48:45;81.60;;;41.47;;
49834;SDS011;35729;52.090;13.162;2022-12-16T09:51:30;79.65;;;40.35;;
49834;SDS011;35729;52.090;13.162;2022-12-16T09:54:13;80.88;;;39.97;;
49834;SDS011;35729;52.090;13.162;2022-12-16T09:56:58;77.03;;;40.50;;
49834;SDS011;35729;52.090;13.162;2022-12-16T09:59:42;77.97;;;40.05;;
49834;SDS011;35729;52.090;13.162;2022-12-16T10:02:35;82.82;;;42.00;;
49834;SDS011;35729;52.090;13.162;2022-12-16T10:05:17;86.65;;;42.78;;
49834;SDS011;35729;52.090;13.162;2022-12-16T10:08:08;78.43;;;40.00;;
49834;SDS011;35729;52.090;13.162;2022-12-16T10:10:59;86.43;;;42.38;;
49834;SDS011;35729;52.090;13.162;2022-12-16T10:13:47;86.50;;;42.72;;
49834;SDS011;35729;52.090;13.162;2022-12-16T10:16:35;76.32;;;39.45;;
49834;SDS011;35729;52.090;13.162;2022-12-16T10:19:30;82.68;;;43.42;;
49834;SDS011;35729;52.090;13.162;2022-12-16T10:22:29;83.45;;;40.25;;
49834;SDS011;35729;52.090;13.162;2022-12-16T10:25:16;81.53;;;39.70;;
49834;SDS011;35729;52.090;13.162;2022-12-16T10:28:03;84.90;;;42.58;;
49834;SDS011;35729;52.090;13.162;2022-12-16T10:30:55;83.22;;;41.67;;
49834;SDS011;35729;52.090;13.162;2022-12-16T10:33:36;76.82;;;39.80;;
49834;SDS011;35729;52.090;13.162;2022-12-16T10:36:20;81.53;;;41.67;;
49834;SDS011;35729;52.090;13.162;2022-12-16T10:39:04;81.10;;;42.13;;
49834;SDS011;35729;52.090;13.162;2022-12-16T10:42:01;84.40;;;41.08;;
49834;SDS011;35729;52.090;13.162;2022-12-16T10:44:46;81.72;;;43.97;;
49834;SDS011;35729;52.090;13.162;2022-12-16T10:47:31;77.10;;;42.30;;
49834;SDS011;35729;52.090;13.162;2022-12-16T10:50:12;83.25;;;42.80;;
49834;SDS011;35729;52.090;13.162;2022-12-16T10:52:57;84.32;;;41.75;;
49834;SDS011;35729;52.090;13.162;2022-12-16T10:55:54;83.28;;;43.15;;
49834;SDS011;35729;52.090;13.162;2022-12-16T10:58:44;84.18;;;45.83;;
49834;SDS011;35729;52.090;13.162;2022-12-16T11:01:31;81.95;;;43.97;;
49834;SDS011;35729;52.090;13.162;2022-12-16T11:04:26;74.20;;;43.08;;
49834;SDS011;35729;52.090;13.162;2022-12-16T11:07:24;76.05;;;40.42;;
49834;SDS011;35729;52.090;13.162;2022-12-16T11:13:16;79.03;;;40.80;;
49834;SDS011;35729;52.090;13.162;2022-12-16T11:16:06;73.53;;;40.58;;
49834;SDS011;35729;52.090;13.162;2022-12-16T11:18:51;80.82;;;42.25;;
49834;SDS011;35729;52.090;13.162;2022-12-16T11:21:32;74.75;;;39.13;;
49834;SDS011;35729;52.090;13.162;2022-12-16T11:24:13;71.72;;;40.47;;
49834;SDS011;35729;52.090;13.162;2022-12-16T11:26:59;72.82;;;40.72;;
49834;SDS011;35729;52.090;13.162;2022-12-16T11:29:50;77.80;;;41.00;;
49834;SDS011;35729;52.090;13.162;2022-12-16T11:32:33;72.38;;;40.40;;
49834;SDS011;35729;52.090;13.162;2022-12-16T11:35:17;72.90;;;40.63;;
49834;SDS011;35729;52.090;13.162;2022-12-16T11:38:02;74.47;;;40.67;;
49834;SDS011;35729;52.090;13.162;2022-12-16T11:40:45;70.20;;;38.97;;
49834;SDS011;35729;52.090;13.162;2022-12-16T11:43:28;73.80;;;40.00;;
49834;SDS011;35729;52.090;13.162;2022-12-16T11:46:12;73.20;;;41.78;;
49834;SDS011;35729;52.090;13.162;2022-12-16T11:48:58;75.10;;;40.28;;
49834;SDS011;35729;52.090;13.162;2022-12-16T11:51:42;73.30;;;41.53;;
49834;SDS011;35729;52.090;13.162;2022-12-16T11:54:29;74.35;;;41.80;;
49834;SDS011;35729;52.090;13.162;2022-12-16T11:57:16;76.32;;;41.35;;
49834;SDS011;35729;52.090;13.162;2022-12-16T12:00:02;78.57;;;39.83;;
49834;SDS011;35729;52.090;13.162;2022-12-16T12:02:46;79.40;;;43.85;;
49834;SDS011;35729;52.090;13.162;2022-12-16T12:05:32;71.82;;;40.45;;
49834;SDS011;35729;52.090;13.162;2022-12-16T12:08:18;75.13;;;43.20;;
49834;SDS011;35729;52.090;13.162;2022-12-16T12:11:06;74.72;;;42.03;;
49834;SDS011;35729;52.090;13.162;2022-12-16T12:13:56;75.28;;;40.03;;
49834;SDS011;35729;52.090;13.162;2022-12-16T12:16:53;70.55;;;40.70;;
49834;SDS011;35729;52.090;13.162;2022-12-16T12:19:45;66.32;;;40.60;;
49834;SDS011;35729;52.090;13.162;2022-12-16T12:22:36;74.07;;;40.78;;
49834;SDS011;35729;52.090;13.162;2022-12-16T12:25:20;69.78;;;41.85;;
49834;SDS011;35729;52.090;13.162;2022-12-16T12:28:06;74.28;;;40.75;;
49834;SDS011;35729;52.090;13.162;2022-12-16T12:31:00;72.68;;;42.33;;
49834;SDS011;35729;52.090;13.162;2022-12-16T12:33:53;71.07;;;39.78;;
49834;SDS011;35729;52.090;13.162;2022-12-16T12:36:41;61.28;;;37.00;;
49834;SDS011;35729;52.090;13.162;2022-12-16T12:39:30;74.72;;;43.38;;
49834;SDS011;35729;52.090;13.162;2022-12-16T12:42:21;68.03;;;40.15;;
49834;SDS011;35729;52.090;13.162;2022-12-16T12:45:15;71.72;;;41.35;;
49834;SDS011;35729;52.090;13.162;2022-12-16T12:48:12;68.15;;;39.70;;
49834;SDS011;35729;52.090;13.162;2022-12-16T12:51:03;70.43;;;40.97;;
49834;SDS011;35729;52.090;13.162;2022-12-16T12:53:50;65.82;;;38.28;;
49834;SDS011;35729;52.090;13.162;2022-12-16T12:56:40;70.80;;;43.10;;
49834;SDS011;35729;52.090;13.162;2022-12-16T12:59:28;65.60;;;39.25;;
49834;SDS011;35729;52.090;13.162;2022-12-16T13:02:15;66.32;;;39.08;;
49834;SDS011;35729;52.090;13.162;2022-12-16T13:05:02;65.05;;;38.58;;
49834;SDS011;35729;52.090;13.162;2022-12-16T13:07:46;65.22;;;38.72;;
49834;SDS011;35729;52.090;13.162;2022-12-16T13:10:32;63.83;;;37.38;;
49834;SDS011;35729;52.090;13.162;2022-12-16T13:13:31;59.22;;;36.95;;
49834;SDS011;35729;52.090;13.162;2022-12-16T13:22:27;53.08;;;33.80;;
49834;SDS011;35729;52.090;13.162;2022-12-16T13:28:19;55.00;;;33.85;;
49834;SDS011;35729;52.090;13.162;2022-12-16T13:31:02;53.33;;;33.40;;
49834;SDS011;35729;52.090;13.162;2022-12-16T13:33:48;52.35;;;30.33;;
49834;SDS011;35729;52.090;13.162;2022-12-16T13:36:32;55.08;;;33.75;;
49834;SDS011;35729;52.090;13.162;2022-12-16T13:39:19;50.58;;;31.92;;
49834;SDS011;35729;52.090;13.162;2022-12-16T13:42:05;53.88;;;32.60;;
49834;SDS011;35729;52.090;13.162;2022-12-16T13:45:14;56.88;;;34.00;;
49834;SDS011;35729;52.090;13.162;2022-12-16T13:48:15;55.33;;;32.97;;
49834;SDS011;35729;52.090;13.162;2022-12-16T13:51:06;52.90;;;32.00;;
49834;SDS011;35729;52.090;13.162;2022-12-16T13:53:56;54.22;;;33.78;;
49834;SDS011;35729;52.090;13.162;2022-12-16T13:56:39;67.82;;;37.55;;
49834;SDS011;35729;52.090;13.162;2022-12-16T13:59:29;49.63;;;33.33;;
49834;SDS011;35729;52.090;13.162;2022-12-16T14:02:14;62.33;;;35.35;;
49834;SDS011;35729;52.090;13.162;2022-12-16T14:05:03;56.78;;;34.25;;
49834;SDS011;35729;52.090;13.162;2022-12-16T14:07:55;58.97;;;35.53;;
49834;SDS011;35729;52.090;13.162;2022-12-16T14:10:37;54.17;;;35.75;;
49834;SDS011;35729;52.090;13.162;2022-12-16T14:13:22;60.13;;;35.75;;
49834;SDS011;35729;52.090;13.162;2022-12-16T14:16:11;61.50;;;37.20;;
49834;SDS011;35729;52.090;13.162;2022-12-16T14:19:02;57.05;;;34.38;;
49834;SDS011;35729;52.090;13.162;2022-12-16T14:21:56;59.28;;;35.33;;
49834;SDS011;35729;52.090;13.162;2022-12-16T14:24:44;64.18;;;36.50;;
49834;SDS011;35729;52.090;13.162;2022-12-16T14:27:25;55.85;;;34.42;;
49834;SDS011;35729;52.090;13.162;2022-12-16T14:30:13;59.03;;;36.58;;
49834;SDS011;35729;52.090;13.162;2022-12-16T14:32:59;62.58;;;38.08;;
49834;SDS011;35729;52.090;13.162;2022-12-16T14:35:54;62.25;;;36.47;;
49834;SDS011;35729;52.090;13.162;2022-12-16T14:38:35;63.30;;;39.10;;
49834;SDS011;35729;52.090;13.162;2022-12-16T14:41:17;67.32;;;39.67;;
49834;SDS011;35729;52.090;13.162;2022-12-16T14:44:00;65.40;;;40.22;;
49834;SDS011;35729;52.090;13.162;2022-12-16T14:46:47;64.45;;;41.08;;
49834;SDS011;35729;52.090;13.162;2022-12-16T14:49:32;67.95;;;41.45;;
49834;SDS011;35729;52.090;13.162;2022-12-16T14:52:17;63.95;;;40.17;;
49834;SDS011;35729;52.090;13.162;2022-12-16T14:55:11;72.13;;;41.17;;
49834;SDS011;35729;52.090;13.162;2022-12-16T14:58:03;63.07;;;40.60;;
49834;SDS011;35729;52.090;13.162;2022-12-16T15:00:48;63.53;;;37.88;;
49834;SDS011;35729;52.090;13.162;2022-12-16T15:03:31;64.13;;;39.75;;
49834;SDS011;35729;52.090;13.162;2022-12-16T15:06:22;66.47;;;38.83;;
49834;SDS011;35729;52.090;13.162;2022-12-16T15:09:07;60.17;;;37.63;;
49834;SDS011;35729;52.090;13.162;2022-12-16T15:11:56;64.60;;;39.15;;
49834;SDS011;35729;52.090;13.162;2022-12-16T15:14:37;65.88;;;40.08;;
49834;SDS011;35729;52.090;13.162;2022-12-16T15:17:20;70.57;;;40.17;;
49834;SDS011;35729;52.090;13.162;2022-12-16T15:20:04;59.85;;;37.50;;
49834;SDS011;35729;52.090;13.162;2022-12-16T15:22:57;67.13;;;40.35;;
49834;SDS011;35729;52.090;13.162;2022-12-16T15:25:37;71.53;;;39.90;;
49834;SDS011;35729;52.090;13.162;2022-12-16T15:28:22;70.45;;;41.63;;
49834;SDS011;35729;52.090;13.162;2022-12-16T15:31:11;69.18;;;39.88;;
49834;SDS011;35729;52.090;13.162;2022-12-16T15:34:05;70.68;;;41.55;;
49834;SDS011;35729;52.090;13.162;2022-12-16T15:37:02;70.85;;;40.35;;
49834;SDS011;35729;52.090;13.162;2022-12-16T15:39:54;66.22;;;40.08;;
49834;SDS011;35729;52.090;13.162;2022-12-16T15:42:35;75.57;;;42.65;;
49834;SDS011;35729;52.090;13.162;2022-12-16T15:45:17;71.93;;;42.45;;
49834;SDS011;35729;52.090;13.162;2022-12-16T15:48:07;68.70;;;40.42;;
49834;SDS011;35729;52.090;13.162;2022-12-16T15:50:52;72.45;;;42.15;;
49834;SDS011;35729;52.090;13.162;2022-12-16T15:53:34;70.22;;;40.85;;